Ely, Nevada Weather observations

Data are for observation ending at time listed.
 Day   Time    Ave.   Ave.  Ave.  Vector   Max.   Stn.    Total    Solar   Ave.  
  of    of     Air    Rel.  Wind   Wind    Wind   Baro.  Precip.   Rad.    Soil  
Year   Day     Temp.  Hum.  Speed  Dir.    Gust   Pres.                    Temp. 
2015   (PST)    F      %     mph   deg.    mph     mb.     in.     W/m2     F   
------------------------------------------------------------------------------
 141   18:50   50.3    59    3.4   176      7.5   805.3    0.00       7    50.2
 141   19:00   49.8    62    1.9    74      3.7   805.3    0.00       7    49.9
 141   19:10   49.6    61    1.5   142      3.7   805.3    0.00       3    49.7
 141   19:20   49.3    62    3.2   148      5.7   805.3    0.00       1    49.4
 141   19:30   48.3    66    2.9    49      4.3   805.5    0.00       1    49.2
 141   19:40   47.8    68    3.2    63      5.4   805.5    0.00       1    49.0
 141   19:50   48.1    68    0.8    92      3.3   805.5    0.00       1    48.8
 141   20:00   47.8    69    0.2   172      1.7   805.5    0.00       1    48.6
 141   20:10   47.6    68    0.9   156      2.0   805.5    0.00       0    48.3
 141   20:20   46.9    69    0.7   151      2.1   805.7    0.00       1    48.0
 141   20:30   45.8    71    0.5    75      3.2   805.8    0.00       1    47.7
 141   20:40   44.9    73    1.8    92      3.6   805.8    0.00       1    47.4
 141   20:50   44.8    74    1.0   132      2.3   805.8    0.00       1    47.2
 141   21:00   44.6    74    1.8   140      3.0   805.8    0.00       0    47.0
 141   21:10   43.9    75    1.6   131      3.9   805.9    0.00       0    46.7
 141   21:20   43.6    75    2.2   140      4.3   805.9    0.00       0    46.5
 141   21:30   42.8    77    0.1   269      1.0   805.9    0.00       0    46.2
 141   21:40   42.7    78    1.2   245      3.2   805.9    0.00       1    46.0
 141   21:50   42.1    78    3.3   233      4.1   806.0    0.00       1    45.9
 141   22:00   42.1    77    4.3   206      5.2   806.1    0.00       0    45.7
 141   22:10   42.8    76    3.6   157      6.4   806.2    0.00       0    45.5
 141   22:20   41.3    80    4.1    94      6.6   806.2    0.00       0    45.4
 141   22:30   41.3    81    4.4    83      7.7   806.3    0.00       0    45.3
 141   22:40   42.4    79    2.3    85      6.1   806.2    0.00       1    45.2
 141   22:50   42.4    79    4.7   185      9.9   806.3    0.00       1    45.1
 141   23:00   42.0    79    6.4   188      8.7   806.3    0.00       1    45.1
 141   23:10   42.5    79    6.2   192      7.5   806.3    0.00       0    45.1
 141   23:20   42.6    78    3.5   220      6.8   806.3    0.00       0    45.1
 141   23:30   42.9    78    2.0   134      5.5   806.3    0.00       0    45.1
 141   23:40   42.1    80    0.6    81      2.5   806.3    0.00       0    45.2
 141   23:50   41.8    80    3.2   119      5.0   806.3    0.00       0    45.1
 142    0:00   42.4    79    2.6   134      4.7   806.3    0.00       1    45.1
 142    0:10   42.7    77    4.4   153      5.7   806.3    0.00       1    45.0
 142    0:20   43.1    76    4.2   176      5.5   806.2    0.00       1    45.0
 142    0:30   43.1    76    3.5   172      5.0   806.3    0.00       1    45.0
 142    0:40   42.8    76    5.0   163      6.8   806.2    0.00       0    45.0
 142    0:50   42.3    79    4.8   151      6.7   806.3    0.00       0    44.9
 142    1:00   42.0    81    5.9   158      9.5   806.3    0.00       0    44.8
 142    1:10   42.7    79    5.8   161      9.3   806.3    0.00       0    44.8
 142    1:20   43.5    77    4.1   174      6.8   806.3    0.00       0    44.8
 142    1:30   43.3    77    5.1   162      7.3   806.3    0.00       0    44.8
 142    1:40   43.3    77    4.2   147      5.9   806.3    0.00       1    44.8
 142    1:50   42.7    79    3.1   141      5.3   806.3    0.00       0    44.7
 142    2:00   42.5    79    1.8   175      3.7   806.3    0.00       1    44.6
 142    2:10   42.8    78    3.3   179      4.2   806.3    0.00       0    44.6
 142    2:20   42.9    78    4.1   159      6.9   806.4    0.00       0    44.6
 142    2:30   42.6    81    4.1   188      6.1   806.4    0.00       0    44.5
 142    2:40   42.4    83    2.5   187      6.5   806.3    0.00       0    44.4
 142    2:50   42.2    80    4.2   160      6.8   806.3    0.00       0    44.4
 142    3:00   41.8    80    5.2   144      6.5   806.2    0.00       0    44.2
 142    3:10   42.4    75    4.5   168      6.1   806.1    0.00       0    44.2
 142    3:20   42.5    76    3.2   210      4.1   806.1    0.00       0    44.2
 142    3:30   41.7    81    5.1   293      7.5   806.0    0.00       1    44.1
 142    3:40   41.2    82    5.9   302      7.7   806.0    0.00       0    44.1
 142    3:50   41.1    82    4.2   267      5.6   806.1    0.00       0    44.1
 142    4:00   41.3    82    4.2   276      5.8   806.2    0.00       1    44.1
 142    4:10   41.6    82    2.8   293      6.3   806.2    0.00       3    44.1
 142    4:20   42.2    80    1.9   122      4.5   806.2    0.00       6    44.2
 142    4:30   41.6    82    3.2   123      4.3   806.2    0.00       7    44.0
 142    4:40   41.7    81    2.6   182      3.7   806.2    0.00       7    43.8
 142    4:50   41.9    79    2.3   260      4.9   806.2    0.00      14    43.5
 142    5:00   41.6    80    3.6   234      4.8   806.3    0.00      20    43.3
 142    5:10   40.6    81    5.0   207      6.2   806.3    0.00      27    43.3
 142    5:20   39.9    84    4.0   208      6.3   806.4    0.00      34    43.1
 142    5:30   40.3    83    4.0    92      6.7   806.5    0.00      44    43.1
 142    5:40   40.5    83    3.2    94      5.8   806.6    0.00      58    43.1
 142    5:50   41.1    82    1.6   110      2.9   806.6    0.00      68    43.3
 142    6:00   41.8    79    2.5   124      4.6   806.5    0.00      79    43.4
 142    6:10   42.1    77    3.1   140      5.2   806.6    0.00      92    43.7
 142    6:20   42.8    75    1.5   120      2.6   806.6    0.00     107    43.9
 142    6:30   43.2    74    2.6   138      3.5   806.6    0.00     124    44.4
 142    6:40   43.7    73    1.7   135      2.8   806.6    0.00     141    44.7
 142    6:50   44.7    71    1.0   142      2.5   806.6    0.00     161    45.2
 142    7:00   45.3    70    1.1   216      2.8   806.6    0.00     173    45.8
 142    7:10   45.8    68    2.1   305      3.4   806.6    0.00     220    46.4
 142    7:20   46.4    68    2.4   282      4.5   806.6    0.00     238    47.1
 142    7:30   46.8    67    3.7   317      5.6   806.6    0.00     241    47.8
 142    7:40   47.1    68    4.1   318      5.8   806.5    0.00     277    48.3
 142    7:50   47.9    66    4.6   322      6.4   806.5    0.00     300    48.8
 142    8:00   48.7    63    6.2   328      8.5   806.4    0.00     315    49.4
 142    8:10   49.4    61    5.9   328      8.5   806.3    0.00     349    49.8
 142    8:20   49.9    59    7.0   331     10.2   806.2    0.00     397    50.4
 142    8:30   50.6    57    8.4   313     11.4   806.2    0.00     434    51.0
 142    8:40   51.1    55    9.2   312     12.3   806.1    0.00     487    51.6
 142    8:50   51.8    53    9.8   317     12.9   806.1    0.00     549    52.3
 142    9:00   52.4    51   10.0   322     12.7   806.0    0.00     856    53.3
 142    9:10   53.4    47    8.7   318     12.3   806.0    0.00     890    55.0
 142    9:20   53.9    46    8.3   309     12.9   805.9    0.00     987    56.9
 142    9:30   54.3    43    6.6   316     10.3   806.0    0.00     585    58.4
 142    9:40   55.1    41    4.3   286      7.5   806.0    0.00     696    59.0
 142    9:50   55.6    39    2.9   246      6.6   805.9    0.00     418    59.8
 142   10:00   55.3    39    3.1   212      6.9   805.9    0.00     441    59.8
 142   10:10   55.2    38    1.9    70      4.7   805.8    0.00     389    59.7
 142   10:20   55.5    37    4.4   112     20.5   805.9    0.00     267    59.2
 142   10:30   53.1    42   17.1   127     24.7   805.9    0.00     245    58.4
 142   10:40   52.0    44   17.0   120     24.3   805.9    0.00     229    57.4
 142   10:50   51.6    45   14.3   114     24.4   806.0    0.00     234    56.6
 142   11:00   51.6    46   13.9   112     20.8   805.9    0.00     247    56.0
 142   11:10   51.6    48   11.5   110     21.3   805.9    0.00     242    55.7
 142   11:20   51.5    49   14.4   120     22.3   805.8    0.00     245    55.4
 142   11:30   51.3    48   14.8   120     22.2   805.8    0.00     260    55.2
 142   11:40   51.2    49   16.5   132     23.0   805.7    0.00     277    55.1
 142   11:50   51.4    48   14.2   134     19.4   805.7    0.00     327    55.1
 142   12:00   52.4    46   13.2   136     18.5   805.7    0.00     824    55.4
 142   12:10   54.0    44   12.0   137     19.6   805.6    0.00     933    57.3
 142   12:20   54.1    41   10.0   149     15.1   805.6    0.00     724    58.5
 142   12:30   55.0    38    7.7   164     13.8   805.7    0.00     937    59.2
 142   12:40   56.1    38    8.7   190     15.6   805.7    0.00     821    60.7
 142   12:50   56.8    38    7.5   221     13.2   805.6    0.00    1030    62.0
 142   13:00   57.4    38    8.2   209     17.3   805.4    0.00    1131    63.9
 142   13:10   57.9    37    7.8   186     17.5   805.4    0.00    1162    65.8
 142   13:20   58.0    36    8.8   213     14.0   805.2    0.00    1078    67.1
 142   13:30   58.3    35    8.0   203     15.2   805.1    0.00     494    67.8
 142   13:40   57.4    37    7.0   194     14.1   805.1    0.00     388    67.1
 142   13:50   57.6    38    8.5   165     14.6   805.0    0.00    1053    66.6
 142   14:00   57.8    37    7.0   183     15.3   804.9    0.00     819    67.6
 142   14:10   57.7    37    7.0   162     12.9   804.8    0.00     471    67.9
 142   14:20   56.8    38    3.9   172      8.4   804.8    0.00     207    67.0
 142   14:30   56.3    43    2.7   196      5.6   804.8    0.00     148    65.9
 142   14:40   54.4    53    3.7    88      8.9   804.9    0.02      83    64.0
 142   14:50   51.4    62    9.5    36     17.0   805.0    0.07      53    61.3
 142   15:00   47.3    70    9.0    56     14.8   805.3    0.01      43    57.0
 142   15:10   47.1    73    8.2    63     13.8   805.4    0.00      45    55.2
 142   15:20   48.0    71    7.6    59     12.2   805.5    0.00      54    54.4
 142   15:30   47.9    73    5.3    84     11.3   805.6    0.00      42    53.8
 142   15:40   47.5    72    8.1    71     12.8   805.7    0.00      33    53.3
 142   15:50   47.9    74    4.6    40      8.2   805.7    0.00      20    52.7
 142   16:00   48.1    72    7.8    42     11.8   805.8    0.00      20    52.4
 142   16:10   48.1    71    8.5    58     17.8   805.8    0.00      20    51.9
 142   16:20   47.2    73   13.7    66     20.8   805.8    0.01      26    51.4
 142   16:30   46.9    74   12.9    72     20.0   805.8    0.00      46    50.7
 142   16:40   46.8    75   10.8    74     16.1   805.8    0.01      77    50.3
 142   16:50   47.1    73   10.6    68     15.9   805.8    0.00      99    50.1
 142   17:00   47.6    73    6.6    80     12.6   805.7    0.00     101    50.0
 142   17:10   48.2    76    5.0   108      9.3   805.6    0.01     130    50.2
 142   17:20   48.3    74    6.0   169     11.3   805.6    0.00     151    50.4
 142   17:30   48.2    75    6.0   168      8.6   805.7    0.00      99    50.6
 142   17:40   48.2    78    6.1   170      8.7   805.7    0.00      75    50.6
 142   17:50   48.4    77    6.0   172      9.1   805.7    0.00      83    50.6
 142   18:00   48.3    77    5.3   168      9.0   805.7    0.00      64    50.5
 142   18:10   47.9    76    6.5   159      8.1   805.8    0.00      59    50.3
 142   18:20   47.9    75    6.0   159      7.7   805.8    0.00      45    50.0
 142   18:30   47.7    76    5.8   148      8.6   806.0    0.00      27    49.7
 142   18:40   47.6    78    4.9   139      7.1   806.1    0.00      10    49.6

Return to Ely, Nevada graphs page.


Western Regional Climate Center,wrcc@dri.edu